Time;durP1;ratioP1;P1;durP2;ratioP2;P2;SDS_P1;SDS_P2;PMS_P1;PMS_P2;Temp;Humidity;BMP_temperature;BMP_pressure;BME280_temperature;BME280_humidity;BME280_pressure;Samples;Min_cycle;Max_cycle;Signal;HPM_P1;HPM_P2
2023/02/24 00:01:23;;;;;;;9.38;1.50;;;;;;;;;;5085004;28;20491;-75
2023/02/24 00:03:55;;;;;;;8.10;2.05;;;;;;;;;;5099700;28;20161;-75
2023/02/24 00:06:22;;;;;;;9.57;1.38;;;;;;;;;;5094610;28;20071;-75
2023/02/24 00:08:48;;;;;;;8.70;1.75;;;;;;;;;;5099432;28;20063;-75
2023/02/24 00:11:17;;;;;;;10.10;1.67;;;;;;;;;;5081472;28;20387;-75
2023/02/24 00:13:45;;;;;;;8.85;1.88;;;;;;;;;;5098640;28;20089;-75
2023/02/24 00:16:16;;;;;;;10.40;1.35;;;;;;;;;;5077191;28;20180;-75
2023/02/24 00:18:43;;;;;;;8.23;1.23;;;;;;;;;;5095909;28;20459;-75
2023/02/24 00:21:13;;;;;;;12.07;2.08;;;;;;;;;;5095602;28;20078;-75
2023/02/24 00:23:40;;;;;;;9.80;1.65;;;;;;;;;;5099355;28;20056;-75
2023/02/24 00:26:07;;;;;;;7.18;1.50;;;;;;;;;;5098006;28;20216;-75
2023/02/24 00:28:34;;;;;;;15.40;1.85;;;;;;;;;;5079413;28;20135;-75
2023/02/24 00:31:09;;;;;;;10.55;1.70;;;;;;;;;;5098079;28;20071;-75
2023/02/24 00:33:38;;;;;;;9.90;1.73;;;;;;;;;;5097925;28;20062;-75
2023/02/24 00:36:05;;;;;;;15.60;1.50;;;;;;;;;;5097178;28;20089;-75
2023/02/24 00:38:34;;;;;;;15.00;1.85;;;;;;;;;;5098857;28;20044;-75
2023/02/24 00:41:02;;;;;;;14.63;2.15;;;;;;;;;;5082757;28;20067;-75
2023/02/24 00:43:28;;;;;;;14.95;2.22;;;;;;;;;;5099214;28;20046;-75
2023/02/24 00:45:54;;;;;;;15.18;2.15;;;;;;;;;;5087638;28;20107;-75
2023/02/24 00:48:20;;;;;;;12.13;1.90;;;;;;;;;;5095339;28;20040;-75
2023/02/24 00:50:46;;;;;;;14.65;1.98;;;;;;;;;;5097717;28;20047;-75
2023/02/24 00:53:12;;;;;;;9.13;2.28;;;;;;;;;;5095646;28;20073;-76
2023/02/24 00:55:39;;;;;;;10.07;1.77;;;;;;;;;;5078008;28;20051;-76
2023/02/24 00:58:06;;;;;;;10.80;1.88;;;;;;;;;;5095614;28;20047;-75
2023/02/24 01:00:35;;;;;;;10.63;2.25;;;;;;;;;;5083227;28;20120;-76
2023/02/24 01:03:02;;;;;;;10.57;1.45;;;;;;;;;;5095657;28;20126;-76
2023/02/24 01:05:28;;;;;;;10.55;1.70;;;;;;;;;;5075293;28;20070;-76
2023/02/24 01:07:54;;;;;;;10.20;1.92;;;;;;;;;;5082524;28;20073;-75
2023/02/24 01:10:22;;;;;;;13.10;2.72;;;;;;;;;;5079705;28;20130;-76
2023/02/24 01:12:48;;;;;;;10.27;1.60;;;;;;;;;;5081382;28;20109;-76
2023/02/24 01:15:16;;;;;;;12.73;1.50;;;;;;;;;;5080008;28;21145;-76
2023/02/24 01:17:42;;;;;;;11.85;1.70;;;;;;;;;;5093474;28;20499;-76
2023/02/24 01:20:18;;;;;;;10.50;1.58;;;;;;;;;;5095806;28;20039;-76
2023/02/24 01:22:45;;;;;;;12.85;2.10;;;;;;;;;;5058566;28;20454;-76
2023/02/24 01:25:12;;;;;;;13.13;1.98;;;;;;;;;;5094050;28;20044;-76
2023/02/24 01:27:39;;;;;;;12.00;1.60;;;;;;;;;;5084590;28;20372;-76
2023/02/24 01:30:07;;;;;;;5.35;1.33;;;;;;;;;;5101582;28;20067;-76
2023/02/24 01:32:34;;;;;;;5.68;1.20;;;;;;;;;;5080848;28;20040;-76
2023/02/24 01:35:00;;;;;;;10.55;1.85;;;;;;;;;;5060310;28;20043;-76
2023/02/24 01:37:27;;;;;;;12.07;2.25;;;;;;;;;;5096914;28;20455;-76
2023/02/24 01:39:54;;;;;;;12.15;1.63;;;;;;;;;;5096704;28;20047;-76
2023/02/24 01:42:22;;;;;;;4.95;1.20;;;;;;;;;;5097349;27;20698;-76
2023/02/24 01:44:50;;;;;;;12.80;1.85;;;;;;;;;;5080649;28;20054;-76
2023/02/24 01:47:19;;;;;;;13.80;2.75;;;;;;;;;;5080387;28;20151;-76
2023/02/24 01:49:47;;;;;;;12.35;1.70;;;;;;;;;;5098772;28;20131;-76
2023/02/24 01:52:16;;;;;;;10.23;1.83;;;;;;;;;;5102047;27;20107;-76
2023/02/24 01:54:42;;;;;;;17.33;2.10;;;;;;;;;;5078793;28;20135;-76
2023/02/24 01:57:10;;;;;;;12.60;1.90;;;;;;;;;;5079509;28;20074;-76
2023/02/24 01:59:36;;;;;;;14.90;2.15;;;;;;;;;;5101154;27;20039;-76
2023/02/24 02:02:05;;;;;;;12.35;1.73;;;;;;;;;;5082980;28;20040;-75
2023/02/24 02:04:45;;;;;;;12.05;1.58;;;;;;;;;;5080464;28;20043;-76
2023/02/24 02:07:14;;;;;;;7.20;1.40;;;;;;;;;;5097967;28;20600;-76
2023/02/24 02:09:41;;;;;;;14.15;1.75;;;;;;;;;;5061384;28;20077;-76
2023/02/24 02:12:08;;;;;;;9.63;1.83;;;;;;;;;;5097192;28;20035;-76
2023/02/24 02:14:35;;;;;;;10.20;1.70;;;;;;;;;;5082873;28;20055;-76
2023/02/24 02:17:04;;;;;;;18.20;2.63;;;;;;;;;;5100020;28;20052;-76
2023/02/24 02:19:34;;;;;;;10.13;1.63;;;;;;;;;;5099866;28;20050;-76
2023/02/24 02:22:02;;;;;;;11.30;1.88;;;;;;;;;;5071871;28;20079;-76
2023/02/24 02:24:39;;;;;;;8.52;1.98;;;;;;;;;;5081442;28;20153;-76
2023/02/24 02:27:19;;;;;;;13.60;1.83;;;;;;;;;;5073215;28;20395;-76
2023/02/24 02:30:12;;;;;;;10.00;2.10;;;;;;;;;;5093753;28;20495;-76
2023/02/24 02:32:50;;;;;;;16.05;1.83;;;;;;;;;;5097098;28;20055;-76
2023/02/24 02:35:35;;;;;;;12.27;2.03;;;;;;;;;;5101065;28;20515;-76
2023/02/24 02:38:11;;;;;;;11.60;1.50;;;;;;;;;;5083492;28;20048;-75
2023/02/24 02:40:41;;;;;;;13.32;1.20;;;;;;;;;;5100676;28;20040;-76
2023/02/24 02:43:13;;;;;;;4.45;1.50;;;;;;;;;;5076295;28;20063;-76
2023/02/24 02:45:46;;;;;;;9.60;1.48;;;;;;;;;;5083450;28;20048;-76
2023/02/24 02:48:16;;;;;;;12.55;2.13;;;;;;;;;;5080540;28;20090;-76
2023/02/24 02:50:45;;;;;;;12.35;1.60;;;;;;;;;;5079680;28;20126;-76
2023/02/24 02:53:19;;;;;;;16.90;2.05;;;;;;;;;;5080730;28;20537;-76
2023/02/24 02:55:47;;;;;;;18.38;2.38;;;;;;;;;;5080198;28;20564;-76
2023/02/24 02:58:15;;;;;;;12.48;1.63;;;;;;;;;;5077327;28;20174;-76
2023/02/24 03:00:48;;;;;;;12.93;1.55;;;;;;;;;;5079851;28;20083;-76
2023/02/24 03:03:16;;;;;;;21.50;2.90;;;;;;;;;;5076893;28;20677;-76
2023/02/24 03:05:47;;;;;;;12.98;2.05;;;;;;;;;;5080574;28;20040;-76
2023/02/24 03:08:15;;;;;;;16.17;1.85;;;;;;;;;;5076757;28;20357;-76
2023/02/24 03:10:44;;;;;;;13.13;1.88;;;;;;;;;;5061355;28;20707;-76
2023/02/24 03:13:12;;;;;;;12.32;2.00;;;;;;;;;;5080094;28;20206;-76
2023/02/24 03:15:43;;;;;;;17.98;2.20;;;;;;;;;;5076609;28;20046;-76
2023/02/24 03:18:14;;;;;;;12.77;1.88;;;;;;;;;;5081294;28;20401;-75
2023/02/24 03:20:45;;;;;;;8.45;2.08;;;;;;;;;;5077003;28;20101;-76
2023/02/24 03:23:15;;;;;;;12.90;2.13;;;;;;;;;;5076901;28;20052;-76
2023/02/24 03:25:47;;;;;;;16.10;2.30;;;;;;;;;;5077842;28;20465;-76
2023/02/24 03:28:15;;;;;;;14.60;1.85;;;;;;;;;;5077321;28;20123;-76
2023/02/24 03:30:43;;;;;;;14.07;1.95;;;;;;;;;;5074033;28;20079;-76
2023/02/24 03:33:15;;;;;;;14.55;1.95;;;;;;;;;;5079254;28;20040;-76
2023/02/24 03:35:42;;;;;;;15.35;2.10;;;;;;;;;;5074144;28;20052;-76
2023/02/24 03:38:09;;;;;;;15.48;2.00;;;;;;;;;;5079611;28;20052;-76
2023/02/24 03:40:37;;;;;;;12.73;1.88;;;;;;;;;;5076547;28;20113;-74
2023/02/24 03:43:06;;;;;;;9.88;2.22;;;;;;;;;;5076710;28;20075;-76
2023/02/24 03:45:36;;;;;;;12.65;1.80;;;;;;;;;;5078576;28;20052;-76
2023/02/24 03:48:04;;;;;;;14.43;2.50;;;;;;;;;;5076481;28;20109;-76
2023/02/24 03:50:31;;;;;;;11.55;2.10;;;;;;;;;;5077653;28;20050;-76
2023/02/24 03:53:11;;;;;;;20.65;2.35;;;;;;;;;;5080231;28;20044;-76
2023/02/24 03:55:38;;;;;;;19.38;2.78;;;;;;;;;;5078585;28;20097;-76
2023/02/24 03:58:07;;;;;;;9.52;2.05;;;;;;;;;;5076838;28;20047;-76
2023/02/24 04:00:45;;;;;;;16.23;3.17;;;;;;;;;;5078944;28;20501;-76
2023/02/24 04:03:24;;;;;;;14.55;1.90;;;;;;;;;;5079206;28;20058;-76
2023/02/24 04:05:58;;;;;;;12.65;2.13;;;;;;;;;;5056292;28;20044;-76
2023/02/24 04:08:26;;;;;;;12.88;2.20;;;;;;;;;;5074049;28;20051;-76
2023/02/24 04:10:52;;;;;;;16.95;2.90;;;;;;;;;;5074915;28;20094;-76
2023/02/24 04:13:22;;;;;;;24.85;2.70;;;;;;;;;;5076170;28;20054;-76
2023/02/24 04:15:57;;;;;;;15.05;2.30;;;;;;;;;;5077037;28;20783;-76
2023/02/24 04:18:26;;;;;;;12.15;2.08;;;;;;;;;;5075934;28;20101;-76
2023/02/24 04:20:53;;;;;;;16.27;2.30;;;;;;;;;;5075943;28;20044;-76
2023/02/24 04:23:21;;;;;;;15.75;2.08;;;;;;;;;;5077686;28;20377;-76
2023/02/24 04:25:50;;;;;;;13.25;1.98;;;;;;;;;;5074631;28;20105;-76
2023/02/24 04:28:20;;;;;;;16.70;1.90;;;;;;;;;;5079678;28;20045;-76
2023/02/24 04:30:49;;;;;;;17.50;2.67;;;;;;;;;;5074289;28;20048;-76
2023/02/24 04:33:15;;;;;;;25.92;3.28;;;;;;;;;;5078671;28;20043;-76
2023/02/24 04:35:44;;;;;;;14.10;2.28;;;;;;;;;;5075668;28;20056;-76
2023/02/24 04:38:10;;;;;;;14.50;2.50;;;;;;;;;;5077421;28;20230;-76
2023/02/24 04:40:36;;;;;;;21.98;2.42;;;;;;;;;;5075783;28;20078;-76
2023/02/24 04:43:02;;;;;;;18.38;2.47;;;;;;;;;;5095088;28;20047;-76
2023/02/24 04:45:29;;;;;;;14.23;2.60;;;;;;;;;;5081181;28;20085;-76
2023/02/24 04:48:03;;;;;;;16.20;2.53;;;;;;;;;;5080501;28;20063;-76
2023/02/24 04:50:30;;;;;;;16.83;2.22;;;;;;;;;;5084579;28;20095;-76
2023/02/24 04:53:01;;;;;;;15.07;2.20;;;;;;;;;;5102997;28;20051;-76
2023/02/24 04:55:28;;;;;;;13.65;1.90;;;;;;;;;;5097375;28;20440;-76
2023/02/24 04:57:55;;;;;;;14.90;2.35;;;;;;;;;;5080401;28;20173;-76
2023/02/24 05:00:22;;;;;;;15.73;2.70;;;;;;;;;;5094959;28;20451;-76
2023/02/24 05:02:49;;;;;;;29.25;3.03;;;;;;;;;;5094782;28;20054;-76
2023/02/24 05:05:17;;;;;;;14.52;2.15;;;;;;;;;;5098325;28;20483;-76
2023/02/24 05:07:46;;;;;;;17.77;2.42;;;;;;;;;;5080412;28;20046;-76
2023/02/24 05:10:14;;;;;;;19.92;2.95;;;;;;;;;;5099301;28;20070;-76
2023/02/24 05:12:40;;;;;;;26.10;3.45;;;;;;;;;;5097291;28;20040;-76
2023/02/24 05:15:07;;;;;;;24.60;2.92;;;;;;;;;;5077562;28;20040;-76
2023/02/24 05:17:34;;;;;;;17.35;2.63;;;;;;;;;;5097712;28;20031;-76
2023/02/24 05:22:50;;;;;;;16.08;2.95;;;;;;;;;;5078752;28;20039;-76
2023/02/24 05:25:17;;;;;;;22.73;4.40;;;;;;;;;;5095455;28;20039;-76
2023/02/24 05:27:43;;;;;;;20.27;3.17;;;;;;;;;;5100881;28;20096;-76
2023/02/24 05:30:10;;;;;;;20.33;3.60;;;;;;;;;;5094750;28;20827;-76
2023/02/24 05:32:37;;;;;;;22.35;3.35;;;;;;;;;;5096109;28;20055;-77
2023/02/24 05:35:04;;;;;;;24.33;3.45;;;;;;;;;;5097420;28;20048;-77
2023/02/24 05:37:32;;;;;;;25.95;4.25;;;;;;;;;;5084999;28;20471;-77
2023/02/24 05:39:59;;;;;;;18.17;3.70;;;;;;;;;;5093882;28;20071;-77
2023/02/24 05:42:26;;;;;;;23.77;3.50;;;;;;;;;;5079994;28;20066;-77
2023/02/24 05:44:53;;;;;;;17.70;4.32;;;;;;;;;;5095707;28;20052;-78
2023/02/24 05:47:21;;;;;;;15.73;3.85;;;;;;;;;;5100462;28;20411;-77
2023/02/24 05:49:50;;;;;;;25.42;4.57;;;;;;;;;;5093248;28;20081;-77
2023/02/24 05:52:17;;;;;;;32.95;5.43;;;;;;;;;;5095282;28;20040;-77
2023/02/24 05:54:44;;;;;;;21.73;4.03;;;;;;;;;;5078124;28;20548;-77
2023/02/24 05:57:12;;;;;;;27.58;5.00;;;;;;;;;;5077794;28;20047;-77
2023/02/24 05:59:40;;;;;;;22.67;4.78;;;;;;;;;;5096223;28;20111;-77
2023/02/24 06:02:08;;;;;;;27.20;4.43;;;;;;;;;;5075342;28;20253;-77
2023/02/24 06:04:38;;;;;;;30.77;6.50;;;;;;;;;;5095150;28;20078;-77
2023/02/24 06:07:06;;;;;;;27.85;5.53;;;;;;;;;;5094655;28;20031;-77
2023/02/24 06:09:33;;;;;;;25.05;5.93;;;;;;;;;;5098672;28;20047;-77
2023/02/24 06:11:59;;;;;;;31.00;5.85;;;;;;;;;;5084584;28;20371;-77
2023/02/24 06:14:27;;;;;;;30.38;6.25;;;;;;;;;;5088944;28;20052;-78
2023/02/24 06:16:53;;;;;;;21.98;5.22;;;;;;;;;;5091732;28;20134;-76
2023/02/24 06:19:19;;;;;;;28.98;5.05;;;;;;;;;;5111128;28;20066;-77
2023/02/24 06:21:45;;;;;;;26.77;5.22;;;;;;;;;;5093430;28;20719;-78
2023/02/24 06:24:13;;;;;;;36.92;5.68;;;;;;;;;;5112941;28;20487;-76
2023/02/24 06:26:42;;;;;;;23.17;5.03;;;;;;;;;;5083054;28;20078;-77
2023/02/24 06:29:12;;;;;;;31.25;5.75;;;;;;;;;;5112873;28;20119;-77
2023/02/24 06:31:38;;;;;;;32.17;5.85;;;;;;;;;;5112719;28;20051;-76
2023/02/24 06:34:05;;;;;;;25.80;5.57;;;;;;;;;;5109306;28;20043;-77
2023/02/24 06:36:31;;;;;;;26.52;4.35;;;;;;;;;;5092984;28;20067;-77
2023/02/24 06:38:57;;;;;;;23.65;4.90;;;;;;;;;;5112599;28;20060;-77
2023/02/24 06:41:28;;;;;;;30.13;6.07;;;;;;;;;;5110908;28;20046;-77
2023/02/24 06:43:54;;;;;;;22.65;4.63;;;;;;;;;;5094705;28;20471;-77
2023/02/24 06:46:20;;;;;;;27.83;5.65;;;;;;;;;;5090981;28;20059;-77
2023/02/24 06:48:46;;;;;;;26.50;4.35;;;;;;;;;;5094406;28;20050;-77
2023/02/24 06:51:15;;;;;;;30.92;7.22;;;;;;;;;;5090994;28;20036;-77
2023/02/24 06:53:42;;;;;;;31.27;6.13;;;;;;;;;;5104212;28;20126;-77
2023/02/24 06:56:14;;;;;;;31.02;6.10;;;;;;;;;;5105987;28;20044;-77
2023/02/24 06:58:42;;;;;;;31.77;6.38;;;;;;;;;;5091415;28;20038;-78
2023/02/24 07:01:10;;;;;;;24.70;4.40;;;;;;;;;;5105690;28;20060;-78
2023/02/24 07:03:38;;;;;;;32.78;4.95;;;;;;;;;;5087324;28;20491;-77
2023/02/24 07:06:19;;;;;;;31.10;4.47;;;;;;;;;;5104332;28;20044;-75
2023/02/24 07:08:46;;;;;;;31.45;6.03;;;;;;;;;;5093995;28;20778;-76
2023/02/24 07:11:16;;;;;;;40.55;5.35;;;;;;;;;;5098137;28;20044;-77
2023/02/24 07:13:43;;;;;;;30.67;5.72;;;;;;;;;;5098588;28;20056;-77
2023/02/24 07:16:10;;;;;;;30.65;5.25;;;;;;;;;;5100192;28;20040;-77
2023/02/24 07:18:39;;;;;;;38.03;5.65;;;;;;;;;;5098836;28;20510;-77
2023/02/24 07:21:10;;;;;;;33.33;5.35;;;;;;;;;;5097557;28;20036;-77
2023/02/24 07:23:38;;;;;;;33.92;5.25;;;;;;;;;;5075046;28;20044;-81
2023/02/24 07:26:10;;;;;;;30.67;5.57;;;;;;;;;;5078867;28;20480;-77
2023/02/24 07:28:38;;;;;;;34.92;5.63;;;;;;;;;;5100204;28;20053;-77
2023/02/24 07:31:08;;;;;;;29.27;6.55;;;;;;;;;;5077366;28;20048;-77
2023/02/24 07:33:35;;;;;;;35.78;6.60;;;;;;;;;;5094222;28;20040;-78
2023/02/24 07:36:07;;;;;;;39.85;6.72;;;;;;;;;;5078459;28;20040;-78
2023/02/24 07:38:34;;;;;;;38.83;6.32;;;;;;;;;;5104845;28;20040;-78
2023/02/24 07:41:01;;;;;;;37.95;6.18;;;;;;;;;;5086984;28;20048;-77
2023/02/24 07:43:28;;;;;;;35.90;6.28;;;;;;;;;;5085792;28;20287;-77
2023/02/24 07:45:54;;;;;;;36.15;6.78;;;;;;;;;;5075715;28;20051;-75
2023/02/24 07:48:20;;;;;;;31.38;6.30;;;;;;;;;;5105029;28;20404;-76
2023/02/24 07:50:47;;;;;;;39.28;6.90;;;;;;;;;;5079357;28;20090;-75
2023/02/24 07:53:15;;;;;;;29.00;6.00;;;;;;;;;;5087395;28;20051;-75
2023/02/24 07:55:41;;;;;;;31.13;6.88;;;;;;;;;;5084874;28;20048;-76
2023/02/24 07:58:09;;;;;;;21.27;5.82;;;;;;;;;;5095906;28;20040;-76
2023/02/24 08:00:58;;;;;;;25.20;6.00;;;;;;;;;;5086879;28;20088;-74
2023/02/24 08:03:22;;;;;;;26.95;7.07;;;;;;;;;;5078123;28;20127;-66
2023/02/24 08:05:48;;;;;;;28.77;7.93;;;;;;;;;;5101067;28;20047;-66
2023/02/24 08:08:19;;;;;;;28.00;7.63;;;;;;;;;;5099141;28;20197;-66
2023/02/24 08:10:46;;;;;;;24.67;7.60;;;;;;;;;;5097097;28;20044;-67
2023/02/24 08:13:12;;;;;;;29.00;8.68;;;;;;;;;;5100301;28;20035;-75
2023/02/24 08:15:38;;;;;;;27.08;8.35;;;;;;;;;;5078777;28;20051;-67
2023/02/24 08:18:05;;;;;;;29.50;8.70;;;;;;;;;;5102621;28;20040;-68
2023/02/24 08:20:50;;;;;;;24.27;8.85;;;;;;;;;;5103253;28;20522;-67
2023/02/24 08:23:17;;;;;;;25.70;8.80;;;;;;;;;;5082466;28;20113;-67
2023/02/24 08:25:44;;;;;;;32.25;9.98;;;;;;;;;;5099365;28;20043;-67
2023/02/24 08:28:11;;;;;;;24.27;8.57;;;;;;;;;;5101246;28;20169;-82
2023/02/24 08:30:43;;;;;;;27.77;8.32;;;;;;;;;;5080588;28;20055;-68
2023/02/24 08:33:14;;;;;;;28.85;9.85;;;;;;;;;;5078175;28;20048;-68
2023/02/24 08:35:43;;;;;;;29.90;8.98;;;;;;;;;;5078737;28;20036;-68
2023/02/24 08:38:13;;;;;;;24.88;8.48;;;;;;;;;;5097553;28;20090;-68
2023/02/24 08:40:49;;;;;;;25.20;7.70;;;;;;;;;;5100681;28;20114;-66
2023/02/24 08:43:18;;;;;;;25.40;8.32;;;;;;;;;;5099540;28;20140;-68
2023/02/24 08:45:50;;;;;;;23.00;7.93;;;;;;;;;;5067401;28;20127;-68
2023/02/24 08:48:25;;;;;;;23.52;8.05;;;;;;;;;;5096940;28;20040;-68
2023/02/24 08:50:53;;;;;;;26.73;7.97;;;;;;;;;;5078700;28;20493;-68
2023/02/24 08:53:20;;;;;;;27.52;8.75;;;;;;;;;;5096553;28;20043;-68
2023/02/24 08:55:50;;;;;;;24.23;8.43;;;;;;;;;;5096379;28;20047;-68
2023/02/24 08:58:19;;;;;;;35.47;8.20;;;;;;;;;;5095611;28;20073;-68
2023/02/24 09:00:48;;;;;;;31.02;8.20;;;;;;;;;;5096071;28;20043;-68
2023/02/24 09:03:26;;;;;;;36.38;7.30;;;;;;;;;;5096913;28;20150;-68
2023/02/24 09:05:57;;;;;;;29.13;6.78;;;;;;;;;;5075802;28;20462;-68
2023/02/24 09:08:23;;;;;;;24.08;5.90;;;;;;;;;;5092305;28;20051;-68
2023/02/24 09:10:50;;;;;;;30.05;6.28;;;;;;;;;;5094825;28;20031;-68
2023/02/24 09:13:17;;;;;;;29.02;5.30;;;;;;;;;;5075643;28;20466;-68
2023/02/24 09:15:43;;;;;;;24.27;5.53;;;;;;;;;;5094701;28;20059;-68
2023/02/24 09:18:13;;;;;;;30.73;5.28;;;;;;;;;;5097419;28;20398;-68
2023/02/24 09:20:55;;;;;;;29.10;4.75;;;;;;;;;;5077839;28;20059;-68
2023/02/24 09:23:28;;;;;;;26.55;4.25;;;;;;;;;;5078431;28;20093;-68
2023/02/24 09:25:55;;;;;;;32.58;4.30;;;;;;;;;;5094535;28;20126;-68
2023/02/24 09:28:23;;;;;;;27.40;4.10;;;;;;;;;;5076254;28;20164;-68
2023/02/24 09:30:52;;;;;;;33.25;5.40;;;;;;;;;;5097265;28;20043;-68
2023/02/24 09:33:21;;;;;;;29.95;4.30;;;;;;;;;;5093903;28;20051;-68
2023/02/24 09:36:08;;;;;;;34.90;5.32;;;;;;;;;;5094623;28;20152;-68
2023/02/24 09:42:27;;;;;;;50.97;7.32;;;;;;;;;;5099733;28;20070;-69
2023/02/24 09:44:44;;;;;;;42.33;8.35;;;;;;;;;;5080586;28;20518;-72
2023/02/24 09:47:18;;;;;;;46.47;6.55;;;;;;;;;;5078954;28;20066;-69
2023/02/24 09:49:54;;;;;;;53.92;7.35;;;;;;;;;;5098467;28;21358;-67
2023/02/24 09:52:36;;;;;;;42.55;7.85;;;;;;;;;;5096993;28;20048;-72
2023/02/24 09:55:34;;;;;;;42.63;6.53;;;;;;;;;;5083206;28;20046;-69
2023/02/24 10:00:42;;;;;;;42.35;7.20;;;;;;;;;;5097007;28;20043;-67
2023/02/24 10:03:18;;;;;;;50.53;6.90;;;;;;;;;;5097610;28;20052;-68
2023/02/24 10:05:58;;;;;;;29.65;5.88;;;;;;;;;;5100098;28;20039;-68
2023/02/24 10:08:30;;;;;;;47.80;6.75;;;;;;;;;;5076590;28;20048;-68
2023/02/24 10:11:06;;;;;;;42.70;6.38;;;;;;;;;;5099715;28;20073;-68
2023/02/24 10:13:34;;;;;;;46.30;7.35;;;;;;;;;;5101842;28;20124;-68
2023/02/24 10:16:06;;;;;;;45.50;7.55;;;;;;;;;;5099253;28;20028;-68
2023/02/24 10:18:32;;;;;;;40.33;7.00;;;;;;;;;;5099135;28;20073;-68
2023/02/24 10:21:02;;;;;;;48.33;6.90;;;;;;;;;;5097395;28;20047;-68
2023/02/24 10:23:43;;;;;;;37.17;6.65;;;;;;;;;;5106974;28;20051;-68
2023/02/24 10:26:29;;;;;;;55.88;7.68;;;;;;;;;;5098472;28;20040;-68
2023/02/24 10:28:59;;;;;;;38.67;5.38;;;;;;;;;;5093890;28;20044;-66
2023/02/24 10:31:34;;;;;;;38.60;7.07;;;;;;;;;;5103773;28;20039;-68
2023/02/24 10:34:05;;;;;;;42.58;5.93;;;;;;;;;;5080710;28;20119;-67
2023/02/24 10:36:34;;;;;;;33.30;7.07;;;;;;;;;;5104690;28;20341;-68
2023/02/24 10:39:19;;;;;;;43.00;6.70;;;;;;;;;;5104705;28;20180;-68
2023/02/24 10:41:47;;;;;;;41.50;5.65;;;;;;;;;;5101337;28;20174;-68
2023/02/24 10:44:23;;;;;;;40.50;8.10;;;;;;;;;;5083084;28;20086;-68
2023/02/24 10:47:10;;;;;;;41.38;7.03;;;;;;;;;;5099018;28;20051;-68
2023/02/24 10:49:41;;;;;;;41.47;6.25;;;;;;;;;;5082844;28;20484;-68
2023/02/24 10:52:28;;;;;;;41.10;7.22;;;;;;;;;;5103247;28;20048;-68
2023/02/24 10:55:27;;;;;;;42.30;7.75;;;;;;;;;;5103969;28;20069;-68
2023/02/24 10:57:48;;;;;;;43.95;8.18;;;;;;;;;;5082384;28;20143;-68
2023/02/24 11:03:05;;;;;;;41.30;6.07;;;;;;;;;;5078262;28;20445;-68
2023/02/24 11:05:43;;;;;;;49.20;8.35;;;;;;;;;;5077922;28;20058;-68
2023/02/24 11:08:35;;;;;;;53.10;7.95;;;;;;;;;;5097355;28;20399;-68
2023/02/24 11:11:05;;;;;;;37.33;5.53;;;;;;;;;;5099222;28;20044;-68
2023/02/24 11:17:13;;;;;;;30.98;6.45;;;;;;;;;;5098888;28;20085;-68
2023/02/24 11:19:20;;;;;;;40.97;6.82;;;;;;;;;;5076066;28;20064;-68
2023/02/24 11:21:46;;;;;;;38.53;6.20;;;;;;;;;;5093474;28;20036;-70
2023/02/24 11:24:16;;;;;;;42.55;7.93;;;;;;;;;;5080812;28;20039;-69
2023/02/24 11:26:43;;;;;;;27.30;5.03;;;;;;;;;;5078320;28;20046;-68
2023/02/24 11:29:10;;;;;;;32.10;4.47;;;;;;;;;;5095117;28;20043;-69
2023/02/24 11:31:43;;;;;;;29.92;4.95;;;;;;;;;;5097280;28;20054;-68
2023/02/24 11:34:18;;;;;;;28.90;4.63;;;;;;;;;;5096709;28;20052;-68
2023/02/24 11:36:57;;;;;;;34.83;4.95;;;;;;;;;;5093513;28;20039;-68
2023/02/24 11:39:30;;;;;;;29.33;4.43;;;;;;;;;;5095884;28;20046;-68
2023/02/24 11:41:58;;;;;;;27.27;5.00;;;;;;;;;;5075940;28;20055;-68
2023/02/24 11:44:33;;;;;;;18.88;3.38;;;;;;;;;;5081464;28;20079;-68
2023/02/24 11:47:06;;;;;;;24.27;3.53;;;;;;;;;;5095501;28;20086;-68
2023/02/24 11:49:32;;;;;;;25.13;3.45;;;;;;;;;;5095958;28;20047;-68
2023/02/24 11:52:00;;;;;;;17.73;3.60;;;;;;;;;;5096862;28;20511;-68
2023/02/24 11:54:27;;;;;;;17.85;3.22;;;;;;;;;;5097405;28;20052;-68
2023/02/24 11:56:56;;;;;;;19.25;4.18;;;;;;;;;;5094839;28;20395;-68
2023/02/24 11:59:33;;;;;;;19.52;3.20;;;;;;;;;;5093547;28;20044;-69
2023/02/24 12:02:12;;;;;;;28.30;4.43;;;;;;;;;;5100797;28;20053;-68
2023/02/24 12:04:42;;;;;;;21.77;3.35;;;;;;;;;;5094638;28;20143;-68
2023/02/24 12:07:26;;;;;;;35.65;6.00;;;;;;;;;;5098949;28;20040;-68
2023/02/24 12:09:57;;;;;;;36.92;5.60;;;;;;;;;;5079106;28;20043;-68
2023/02/24 12:12:27;;;;;;;36.67;5.53;;;;;;;;;;5079327;28;20050;-69
2023/02/24 12:14:55;;;;;;;38.72;7.38;;;;;;;;;;5060928;28;20044;-69
2023/02/24 12:17:38;;;;;;;33.00;5.10;;;;;;;;;;5089942;28;20399;-68
2023/02/24 12:20:06;;;;;;;45.47;6.40;;;;;;;;;;5099223;28;20047;-68
2023/02/24 12:22:43;;;;;;;22.58;4.15;;;;;;;;;;5098181;28;20044;-68
2023/02/24 12:25:11;;;;;;;32.25;5.25;;;;;;;;;;5098309;28;20051;-68
2023/02/24 12:27:45;;;;;;;32.05;5.10;;;;;;;;;;5097994;28;21026;-68
2023/02/24 12:30:32;;;;;;;30.45;4.70;;;;;;;;;;5095385;28;20048;-69
2023/02/24 12:33:03;;;;;;;18.20;2.83;;;;;;;;;;5093951;28;20119;-69
2023/02/24 12:35:43;;;;;;;17.30;3.30;;;;;;;;;;5096246;28;20046;-69
2023/02/24 12:38:13;;;;;;;18.23;3.28;;;;;;;;;;5073816;28;20116;-69
2023/02/24 12:40:44;;;;;;;15.38;2.47;;;;;;;;;;5095694;28;20116;-70
2023/02/24 12:43:21;;;;;;;12.57;2.38;;;;;;;;;;5095430;28;20052;-69
2023/02/24 12:45:53;;;;;;;18.73;2.38;;;;;;;;;;5092533;28;20044;-69
2023/02/24 12:48:38;;;;;;;9.43;2.10;;;;;;;;;;5077814;28;20169;-70
2023/02/24 12:51:16;;;;;;;11.40;2.05;;;;;;;;;;5093121;28;20135;-69
2023/02/24 12:53:42;;;;;;;8.95;1.73;;;;;;;;;;5095400;28;20054;-69
2023/02/24 12:56:16;;;;;;;11.35;2.47;;;;;;;;;;5096174;28;20464;-68
2023/02/24 12:58:44;;;;;;;16.30;2.22;;;;;;;;;;5076509;28;20040;-68
2023/02/24 13:01:18;;;;;;;12.20;2.33;;;;;;;;;;5092934;28;20040;-68
2023/02/24 13:03:59;;;;;;;17.38;2.55;;;;;;;;;;5090853;28;20047;-68
2023/02/24 13:06:30;;;;;;;15.43;2.17;;;;;;;;;;5090201;28;20047;-69
2023/02/24 13:09:06;;;;;;;17.40;2.40;;;;;;;;;;5089899;28;20497;-69
2023/02/24 13:11:38;;;;;;;14.35;2.00;;;;;;;;;;5096994;28;20696;-69
2023/02/24 13:14:05;;;;;;;9.80;1.67;;;;;;;;;;5093104;28;20048;-69
2023/02/24 13:16:33;;;;;;;13.32;2.13;;;;;;;;;;5097507;28;20437;-69
2023/02/24 13:19:04;;;;;;;21.73;3.25;;;;;;;;;;5093235;28;20053;-68
2023/02/24 13:21:30;;;;;;;13.43;2.35;;;;;;;;;;5091850;28;20425;-68
2023/02/24 13:23:59;;;;;;;15.80;2.50;;;;;;;;;;5097208;28;20391;-68
2023/02/24 13:26:27;;;;;;;15.55;2.55;;;;;;;;;;5095456;28;20036;-69
2023/02/24 13:28:59;;;;;;;11.38;2.72;;;;;;;;;;5096662;28;20178;-69
2023/02/24 13:31:26;;;;;;;23.02;3.55;;;;;;;;;;5095905;28;20127;-69
2023/02/24 13:33:52;;;;;;;12.93;2.42;;;;;;;;;;5077044;28;20131;-72
2023/02/24 13:36:22;;;;;;;22.88;3.63;;;;;;;;;;5072853;28;20075;-71
2023/02/24 13:38:50;;;;;;;21.75;4.13;;;;;;;;;;5082346;28;20391;-71
2023/02/24 13:41:20;;;;;;;17.45;3.03;;;;;;;;;;5095954;28;20044;-71
2023/02/24 13:43:54;;;;;;;22.27;2.65;;;;;;;;;;5095836;28;20039;-71
2023/02/24 13:46:20;;;;;;;20.10;3.08;;;;;;;;;;5094243;28;20036;-72
2023/02/24 13:48:50;;;;;;;20.80;2.97;;;;;;;;;;5072867;28;20040;-72
2023/02/24 13:51:24;;;;;;;18.10;2.17;;;;;;;;;;5082727;28;20100;-71
2023/02/24 13:53:59;;;;;;;14.27;2.90;;;;;;;;;;5080670;28;20126;-71
2023/02/24 13:56:29;;;;;;;21.73;4.10;;;;;;;;;;5073758;28;20074;-71
2023/02/24 13:58:56;;;;;;;25.38;3.75;;;;;;;;;;5093763;28;20392;-72
2023/02/24 14:01:25;;;;;;;5.82;0.95;;;;;;;;;;5072723;28;20048;-72
2023/02/24 14:04:10;;;;;;;4.65;0.80;;;;;;;;;;5093729;28;20127;-72
2023/02/24 14:06:36;;;;;;;10.98;1.20;;;;;;;;;;5078932;28;20048;-71
2023/02/24 14:09:04;;;;;;;10.77;1.70;;;;;;;;;;5095890;28;20036;-71
2023/02/24 14:11:33;;;;;;;12.43;1.85;;;;;;;;;;5095949;28;20105;-71
2023/02/24 14:13:59;;;;;;;11.95;1.80;;;;;;;;;;5100956;28;20035;-71
2023/02/24 14:16:34;;;;;;;15.95;2.45;;;;;;;;;;5094722;28;20517;-73
2023/02/24 14:19:01;;;;;;;15.55;2.67;;;;;;;;;;5080662;28;20084;-71
2023/02/24 14:21:28;;;;;;;13.30;2.08;;;;;;;;;;5098299;28;20047;-68
2023/02/24 14:24:04;;;;;;;23.40;2.90;;;;;;;;;;5093376;28;20108;-67
2023/02/24 14:26:34;;;;;;;10.68;1.95;;;;;;;;;;5096832;28;20108;-67
2023/02/24 14:29:01;;;;;;;13.52;2.33;;;;;;;;;;5098334;28;20559;-66
2023/02/24 14:31:28;;;;;;;24.88;3.30;;;;;;;;;;5082273;28;20395;-68
2023/02/24 14:33:57;;;;;;;16.27;3.03;;;;;;;;;;5110453;28;20094;-68
2023/02/24 14:36:25;;;;;;;19.23;3.83;;;;;;;;;;5083623;28;20044;-67
2023/02/24 14:39:00;;;;;;;30.65;6.60;;;;;;;;;;5096377;28;20100;-67
2023/02/24 14:41:26;;;;;;;16.45;3.28;;;;;;;;;;5096899;28;20374;-68
2023/02/24 14:43:53;;;;;;;15.02;2.00;;;;;;;;;;5094584;28;20039;-69
2023/02/24 14:46:19;;;;;;;14.63;1.92;;;;;;;;;;5081203;28;20048;-69
2023/02/24 14:48:45;;;;;;;12.35;2.15;;;;;;;;;;5091452;28;20448;-70
2023/02/24 14:51:19;;;;;;;9.73;1.70;;;;;;;;;;5083074;28;20050;-69
2023/02/24 14:53:48;;;;;;;19.80;2.45;;;;;;;;;;5093082;28;20134;-69
2023/02/24 14:56:14;;;;;;;14.43;2.33;;;;;;;;;;5097251;28;20059;-69
2023/02/24 14:58:43;;;;;;;12.80;2.50;;;;;;;;;;5099748;28;20039;-69
2023/02/24 15:01:22;;;;;;;24.42;3.25;;;;;;;;;;5100692;28;20076;-69
2023/02/24 15:03:51;;;;;;;25.23;2.97;;;;;;;;;;5096237;28;20516;-70